Time;durP1;ratioP1;P1;durP2;ratioP2;P2;SDS_P1;SDS_P2;PMS_P1;PMS_P2;Temp;Humidity;BMP_temperature;BMP_pressure;BME280_temperature;BME280_humidity;BME280_pressure;Samples;Min_cycle;Max_cycle;Signal;HPM_P1;HPM_P2
2023/06/06 00:00:20;;;;;;;6.22;3.50;;;11.40;99.90;;;;;;4999072;28;20144;-90
2023/06/06 00:02:46;;;;;;;7.90;3.08;;;11.40;99.90;;;;;;4997777;28;20104;-91
2023/06/06 00:05:14;;;;;;;5.63;3.15;;;11.40;99.90;;;;;;4985480;28;20065;-89
2023/06/06 00:07:43;;;;;;;5.43;3.45;;;11.30;99.90;;;;;;4997264;28;20053;-89
2023/06/06 00:10:14;;;;;;;7.47;3.22;;;11.30;99.90;;;;;;5001109;28;20034;-90
2023/06/06 00:12:46;;;;;;;10.55;3.55;;;11.30;99.90;;;;;;4982904;28;20053;-90
2023/06/06 00:15:15;;;;;;;6.47;3.38;;;11.30;99.90;;;;;;4996045;28;20076;-90
2023/06/06 00:17:44;;;;;;;8.57;3.80;;;11.30;99.90;;;;;;4986653;28;20245;-89
2023/06/06 00:20:13;;;;;;;9.13;3.45;;;11.20;99.90;;;;;;5002939;28;20496;-89
2023/06/06 00:22:39;;;;;;;7.53;3.53;;;11.20;99.90;;;;;;5040725;23;20240;-67
2023/06/06 00:25:06;;;;;;;7.18;3.67;;;11.30;99.90;;;;;;5000017;28;20966;-69
2023/06/06 00:27:33;;;;;;;9.75;3.35;;;11.30;99.90;;;;;;5000071;28;20030;-67
2023/06/06 00:29:59;;;;;;;7.22;3.65;;;11.20;99.90;;;;;;4998725;28;20583;-67
2023/06/06 00:32:26;;;;;;;7.47;3.33;;;11.30;99.90;;;;;;4978542;28;20469;-67
2023/06/06 00:34:52;;;;;;;4.97;3.13;;;11.20;99.90;;;;;;4975560;28;20049;-67
2023/06/06 00:37:18;;;;;;;8.93;4.22;;;11.20;99.90;;;;;;4993064;28;20045;-67
2023/06/06 00:39:43;;;;;;;9.00;3.57;;;11.20;99.90;;;;;;4983213;28;20460;-67
2023/06/06 00:42:09;;;;;;;10.67;3.67;;;11.20;99.90;;;;;;4983271;28;20082;-67
2023/06/06 00:44:40;;;;;;;10.93;3.53;;;11.20;99.90;;;;;;5002019;28;20046;-67
2023/06/06 00:47:07;;;;;;;13.80;3.95;;;11.10;99.90;;;;;;4997312;28;20101;-67
2023/06/06 00:49:36;;;;;;;8.98;3.38;;;11.10;99.90;;;;;;4972424;28;20152;-67
2023/06/06 00:52:02;;;;;;;7.78;3.38;;;11.00;99.90;;;;;;4998456;28;20065;-67
2023/06/06 00:54:29;;;;;;;9.48;3.90;;;11.00;99.90;;;;;;4996511;28;20077;-67
2023/06/06 00:56:55;;;;;;;7.60;3.85;;;11.00;99.90;;;;;;5005811;28;20222;-69
2023/06/06 00:59:23;;;;;;;10.63;4.40;;;11.00;99.90;;;;;;5000458;28;20132;-67
2023/06/06 01:01:51;;;;;;;7.32;3.63;;;11.00;99.90;;;;;;4980917;28;20073;-67
2023/06/06 01:04:18;;;;;;;8.27;3.97;;;11.00;99.90;;;;;;5006075;28;20073;-67
2023/06/06 01:06:44;;;;;;;8.32;3.50;;;11.00;99.90;;;;;;5007108;28;20512;-67
2023/06/06 01:09:11;;;;;;;7.65;3.78;;;10.90;99.90;;;;;;4979515;28;20038;-67
2023/06/06 01:11:43;;;;;;;7.47;3.75;;;11.00;99.90;;;;;;4987170;28;20046;-67
2023/06/06 01:14:24;;;;;;;12.93;3.80;;;10.90;99.90;;;;;;4995936;28;20052;-67
2023/06/06 01:16:57;;;;;;;8.35;3.05;;;10.90;99.90;;;;;;4988202;28;20071;-67
2023/06/06 01:19:33;;;;;;;9.25;3.60;;;10.90;99.90;;;;;;4990012;28;20445;-68
2023/06/06 01:21:59;;;;;;;8.30;4.15;;;10.90;99.90;;;;;;4973294;28;20153;-67
2023/06/06 01:24:29;;;;;;;7.78;3.58;;;10.90;99.90;;;;;;4985977;28;20043;-67
2023/06/06 01:26:54;;;;;;;10.52;4.32;;;10.80;99.90;;;;;;5002641;28;20050;-67
2023/06/06 01:29:21;;;;;;;8.40;3.47;;;10.90;99.90;;;;;;4995972;28;20042;-68
2023/06/06 01:31:58;;;;;;;8.35;3.80;;;10.90;99.90;;;;;;4994841;28;20088;-67
2023/06/06 01:34:42;;;;;;;7.32;4.07;;;10.90;99.90;;;;;;4996960;28;20042;-67
2023/06/06 01:37:29;;;;;;;;;;;10.80;99.90;;;;;;4985050;28;20060;-67
2023/06/06 01:39:56;;;;;;;13.13;4.47;;;10.80;99.90;;;;;;4998168;28;20383;-67
2023/06/06 01:42:23;;;;;;;9.00;4.30;;;10.80;99.90;;;;;;4999607;28;20104;-68
2023/06/06 01:44:52;;;;;;;7.60;3.83;;;10.70;99.90;;;;;;4998735;28;20050;-67
2023/06/06 01:47:19;;;;;;;8.95;3.42;;;10.80;99.90;;;;;;4999363;28;20042;-68
2023/06/06 01:49:45;;;;;;;7.13;3.72;;;10.80;99.90;;;;;;4964777;28;20043;-69
2023/06/06 01:52:11;;;;;;;9.23;4.38;;;10.80;99.90;;;;;;4981968;28;20038;-66
2023/06/06 01:54:40;;;;;;;6.25;3.70;;;10.80;99.90;;;;;;5005266;28;20077;-67
2023/06/06 01:57:07;;;;;;;9.80;4.13;;;10.70;99.90;;;;;;4986891;28;20112;-68
2023/06/06 01:59:33;;;;;;;8.00;4.00;;;10.70;99.90;;;;;;4978870;28;20045;-66
2023/06/06 02:02:02;;;;;;;6.55;3.47;;;10.70;99.90;;;;;;4996051;28;20226;-66
2023/06/06 02:04:27;;;;;;;7.90;4.18;;;10.70;99.90;;;;;;4968238;28;20318;-66
2023/06/06 02:06:53;;;;;;;10.53;5.10;;;10.80;99.90;;;;;;4998983;28;20397;-67
2023/06/06 02:09:22;;;;;;;7.93;3.83;;;10.70;99.90;;;;;;4977371;28;20049;-67
2023/06/06 02:11:48;;;;;;;8.48;3.78;;;10.70;99.90;;;;;;4979167;28;20046;-67
2023/06/06 02:14:15;;;;;;;6.50;3.80;;;10.70;99.90;;;;;;4999099;28;20077;-67
2023/06/06 02:16:45;;;;;;;11.35;3.88;;;10.70;99.90;;;;;;4981599;28;20144;-67
2023/06/06 02:19:10;;;;;;;15.13;4.70;;;10.70;99.90;;;;;;4976398;28;20065;-66
2023/06/06 02:21:47;;;;;;;8.95;4.57;;;10.80;99.90;;;;;;4970090;28;20404;-67
2023/06/06 02:24:13;;;;;;;10.48;3.63;;;10.80;99.90;;;;;;5000820;28;20092;-66
2023/06/06 02:26:41;;;;;;;6.82;4.05;;;10.80;99.90;;;;;;4985699;28;20038;-67
2023/06/06 02:29:07;;;;;;;8.73;3.63;;;10.80;99.90;;;;;;4981508;28;20058;-67
2023/06/06 02:31:33;;;;;;;7.50;3.73;;;10.80;99.90;;;;;;4994734;28;20030;-67
2023/06/06 02:33:58;;;;;;;8.60;3.95;;;10.80;99.90;;;;;;4991618;28;20474;-67
2023/06/06 02:36:29;;;;;;;9.97;4.07;;;10.80;99.90;;;;;;4995185;28;20080;-67
2023/06/06 02:38:55;;;;;;;8.23;3.80;;;10.90;99.90;;;;;;4990043;28;20038;-67
2023/06/06 02:41:21;;;;;;;8.18;4.00;;;10.90;99.90;;;;;;4997681;28;20191;-67
2023/06/06 02:43:47;;;;;;;10.57;3.88;;;10.90;99.90;;;;;;4982410;28;20144;-67
2023/06/06 02:46:13;;;;;;;5.95;3.40;;;10.90;99.90;;;;;;4977997;28;20129;-66
2023/06/06 02:48:47;;;;;;;8.20;4.30;;;10.90;99.90;;;;;;4971012;28;20070;-67
2023/06/06 02:51:13;;;;;;;9.90;4.00;;;10.90;99.90;;;;;;4997978;28;20096;-67
2023/06/06 02:53:40;;;;;;;8.80;3.92;;;10.90;99.90;;;;;;4985946;28;20041;-66
2023/06/06 02:56:07;;;;;;;7.22;4.00;;;10.90;99.90;;;;;;4976302;28;20054;-67
2023/06/06 02:58:33;;;;;;;8.95;4.45;;;10.90;99.90;;;;;;4990232;28;20141;-66
2023/06/06 03:01:03;;;;;;;6.95;4.10;;;10.90;99.90;;;;;;4980018;28;20129;-67
2023/06/06 03:03:29;;;;;;;9.38;4.05;;;10.90;99.90;;;;;;4996958;28;20035;-67
2023/06/06 03:05:56;;;;;;;9.73;4.55;;;10.90;99.90;;;;;;4979349;28;20282;-67
2023/06/06 03:08:22;;;;;;;9.95;4.13;;;10.80;99.90;;;;;;4991385;28;20046;-67
2023/06/06 03:10:49;;;;;;;7.10;3.78;;;10.90;99.90;;;;;;5004360;28;20042;-67
2023/06/06 03:13:16;;;;;;;11.80;4.00;;;10.90;99.90;;;;;;4987440;28;20045;-67
2023/06/06 03:15:44;;;;;;;7.97;4.28;;;10.90;99.90;;;;;;5001556;28;20057;-66
2023/06/06 03:18:19;;;;;;;9.00;4.07;;;10.80;99.90;;;;;;5001839;28;20100;-67
2023/06/06 03:20:47;;;;;;;8.73;4.47;;;10.90;99.90;;;;;;4978061;28;20124;-67
2023/06/06 03:23:13;;;;;;;9.98;4.30;;;10.80;99.90;;;;;;5002308;28;20049;-67
2023/06/06 03:25:45;;;;;;;5.80;3.70;;;10.80;99.90;;;;;;5003902;28;20121;-67
2023/06/06 03:28:12;;;;;;;9.27;4.10;;;10.80;99.90;;;;;;4982794;28;20125;-67
2023/06/06 03:30:38;;;;;;;12.18;4.63;;;10.80;99.90;;;;;;4999480;28;20129;-67
2023/06/06 03:33:06;;;;;;;8.45;4.07;;;10.80;99.90;;;;;;4990655;28;20061;-67
2023/06/06 03:35:33;;;;;;;10.45;4.75;;;10.80;99.90;;;;;;4973803;28;20105;-67
2023/06/06 03:38:00;;;;;;;11.80;4.40;;;10.80;99.90;;;;;;5000887;28;20037;-66
2023/06/06 03:40:26;;;;;;;11.60;3.85;;;10.80;99.90;;;;;;5000412;28;20048;-67
2023/06/06 03:42:52;;;;;;;10.53;3.83;;;10.80;99.90;;;;;;4998354;28;20064;-66
2023/06/06 03:45:18;;;;;;;8.13;3.95;;;10.80;99.90;;;;;;4997401;28;20396;-67
2023/06/06 03:47:44;;;;;;;8.63;4.15;;;10.80;99.90;;;;;;4995572;28;20042;-66
2023/06/06 03:50:11;;;;;;;10.95;4.45;;;10.80;99.90;;;;;;4996981;28;20038;-69
2023/06/06 03:52:37;;;;;;;;;;;10.80;99.90;;;;;;4967592;28;20072;-66
2023/06/06 03:55:03;;;;;;;9.48;4.20;;;10.80;99.90;;;;;;5011486;28;19917;-66
2023/06/06 03:57:29;;;;;;;16.08;4.88;;;10.80;99.90;;;;;;5006213;28;20473;-66
2023/06/06 03:59:55;;;;;;;10.33;3.77;;;10.80;99.90;;;;;;5001677;28;20151;-66
2023/06/06 04:02:21;;;;;;;7.53;4.28;;;10.80;99.90;;;;;;4989056;28;20107;-66
2023/06/06 04:04:50;;;;;;;10.25;4.30;;;10.80;99.90;;;;;;5002527;28;20429;-66
2023/06/06 04:07:16;;;;;;;12.13;4.90;;;10.80;99.90;;;;;;4980810;28;20113;-67
2023/06/06 04:09:42;;;;;;;9.32;4.07;;;10.90;99.90;;;;;;4976894;28;20420;-72
2023/06/06 04:12:09;;;;;;;8.23;3.88;;;10.90;99.90;;;;;;4985424;28;20049;-68
2023/06/06 04:14:37;;;;;;;9.23;4.03;;;10.90;99.90;;;;;;4984451;28;20057;-68
2023/06/06 04:17:03;;;;;;;10.00;4.45;;;10.90;99.90;;;;;;4988543;28;20042;-68
2023/06/06 04:19:30;;;;;;;10.02;4.68;;;10.90;99.90;;;;;;4980110;28;20090;-68
2023/06/06 04:21:56;;;;;;;8.75;4.25;;;11.00;99.90;;;;;;4984840;28;20486;-69
2023/06/06 04:24:22;;;;;;;7.68;4.25;;;11.00;99.90;;;;;;4989378;28;20838;-70
2023/06/06 04:26:48;;;;;;;9.70;4.50;;;11.00;99.90;;;;;;4993109;28;20076;-69
2023/06/06 04:29:14;;;;;;;14.82;4.40;;;11.00;99.90;;;;;;5002148;28;20041;-69
2023/06/06 04:31:42;;;;;;;11.82;4.32;;;11.10;99.90;;;;;;4968899;28;20337;-69
2023/06/06 04:34:09;;;;;;;10.38;4.10;;;11.10;99.90;;;;;;4978521;28;20046;-68
2023/06/06 04:36:38;;;;;;;10.50;3.80;;;11.00;99.90;;;;;;4998747;28;20487;-71
2023/06/06 04:39:05;;;;;;;7.28;3.95;;;11.20;99.90;;;;;;4981746;28;20053;-68
2023/06/06 04:41:33;;;;;;;9.98;4.13;;;11.20;99.90;;;;;;5007706;28;20119;-66
2023/06/06 04:44:03;;;;;;;9.95;4.13;;;11.20;99.90;;;;;;4986805;28;20117;-69
2023/06/06 04:46:31;;;;;;;8.63;4.00;;;11.30;99.90;;;;;;4980069;28;20038;-66
2023/06/06 04:49:01;;;;;;;10.25;4.53;;;11.30;99.90;;;;;;5001902;28;20488;-72
2023/06/06 04:51:31;;;;;;;10.55;4.55;;;11.30;99.90;;;;;;4987285;28;20064;-67
2023/06/06 04:54:03;;;;;;;8.70;3.92;;;11.40;99.90;;;;;;4997860;28;20096;-71
2023/06/06 04:56:29;;;;;;;9.73;4.05;;;11.40;99.90;;;;;;4982537;28;20115;-69
2023/06/06 04:59:05;;;;;;;10.60;4.13;;;11.50;99.90;;;;;;4991604;28;20113;-66
2023/06/06 05:01:36;;;;;;;8.02;4.05;;;11.60;99.90;;;;;;4980585;28;20127;-67
2023/06/06 05:04:04;;;;;;;6.97;4.00;;;11.60;99.90;;;;;;4974300;28;20470;-72
2023/06/06 05:06:31;;;;;;;10.63;3.72;;;11.70;99.90;;;;;;4982647;28;20092;-70
2023/06/06 05:08:59;;;;;;;;;;;11.70;99.90;;;;;;4969783;28;20045;-69
2023/06/06 05:11:25;;;;;;;9.77;4.40;;;11.80;99.90;;;;;;5002169;28;20016;-66
2023/06/06 05:13:54;;;;;;;12.45;3.55;;;11.80;99.90;;;;;;4998429;28;20602;-66
2023/06/06 05:16:29;;;;;;;12.35;4.38;;;11.80;99.90;;;;;;4983049;28;20053;-66
2023/06/06 05:18:55;;;;;;;10.50;4.47;;;11.90;99.90;;;;;;4976677;28;20053;-67
2023/06/06 05:21:23;;;;;;;14.32;4.13;;;12.00;99.90;;;;;;5001574;28;20045;-66
2023/06/06 05:23:48;;;;;;;10.10;3.55;;;12.00;99.90;;;;;;5009218;28;20080;-67
2023/06/06 05:26:14;;;;;;;11.90;4.00;;;12.10;99.90;;;;;;5005620;28;20045;-66
2023/06/06 05:28:42;;;;;;;9.40;3.40;;;12.10;99.90;;;;;;4988678;28;20089;-67
2023/06/06 05:31:08;;;;;;;9.13;3.65;;;12.20;99.90;;;;;;4992175;28;20364;-70
2023/06/06 05:33:38;;;;;;;13.00;4.22;;;12.30;99.90;;;;;;4999235;28;20055;-66
2023/06/06 05:36:04;;;;;;;11.77;4.15;;;12.40;99.90;;;;;;5002014;28;20054;-67
2023/06/06 05:38:30;;;;;;;12.27;4.13;;;12.40;99.90;;;;;;4980606;28;20050;-67
2023/06/06 05:40:55;;;;;;;12.97;3.57;;;12.50;99.90;;;;;;4999866;28;20141;-68
2023/06/06 05:43:21;;;;;;;8.45;4.03;;;12.50;99.90;;;;;;4982995;28;20038;-74
2023/06/06 05:45:47;;;;;;;7.28;3.33;;;12.50;99.90;;;;;;4966811;28;20648;-67
2023/06/06 05:48:12;;;;;;;11.67;3.97;;;12.60;99.90;;;;;;4995506;28;20178;-69
2023/06/06 05:50:38;;;;;;;8.07;4.20;;;12.70;99.90;;;;;;4980337;28;20121;-68
2023/06/06 05:53:04;;;;;;;13.93;4.07;;;12.70;99.90;;;;;;5004254;28;20106;-71
2023/06/06 05:55:35;;;;;;;8.57;3.45;;;12.70;99.90;;;;;;4986457;28;20543;-71
2023/06/06 05:58:04;;;;;;;8.38;3.88;;;12.80;99.90;;;;;;4969091;28;20045;-70
2023/06/06 06:00:32;;;;;;;9.48;3.65;;;12.80;99.90;;;;;;5001698;28;20300;-71
2023/06/06 06:02:59;;;;;;;9.82;3.10;;;12.90;99.90;;;;;;4985618;28;20582;-72
2023/06/06 06:05:29;;;;;;;7.47;3.50;;;13.00;99.90;;;;;;4979462;28;20070;-71
2023/06/06 06:08:00;;;;;;;8.40;3.42;;;13.00;99.90;;;;;;4982976;28;20053;-66
2023/06/06 06:10:31;;;;;;;9.38;3.30;;;13.00;99.90;;;;;;4988902;28;20480;-67
2023/06/06 06:12:57;;;;;;;7.30;3.10;;;13.10;99.90;;;;;;4988016;28;20121;-69
2023/06/06 06:15:24;;;;;;;5.20;2.70;;;13.10;99.90;;;;;;4978559;28;20292;-67
2023/06/06 06:17:50;;;;;;;;;;;13.10;99.90;;;;;;4992858;28;20060;-69
2023/06/06 06:20:17;;;;;;;6.93;3.08;;;13.20;99.90;;;;;;4992950;28;19917;-68
2023/06/06 06:22:43;;;;;;;5.07;2.50;;;13.30;99.90;;;;;;4990731;23;20054;-67
2023/06/06 06:25:16;;;;;;;5.75;2.67;;;13.30;99.90;;;;;;4981934;28;20096;-67
2023/06/06 06:27:44;;;;;;;7.95;2.65;;;13.40;99.90;;;;;;4978749;28;20050;-67
2023/06/06 06:30:11;;;;;;;10.25;3.38;;;13.50;99.90;;;;;;4966805;28;20034;-67
2023/06/06 06:32:39;;;;;;;8.25;2.90;;;13.60;99.90;;;;;;4984038;28;20308;-67
2023/06/06 06:35:06;;;;;;;7.70;3.67;;;13.60;99.90;;;;;;4979516;28;20081;-67
2023/06/06 06:37:36;;;;;;;5.50;2.63;;;13.70;99.90;;;;;;4986152;28;20038;-67
2023/06/06 06:40:14;;;;;;;4.95;2.65;;;13.80;99.90;;;;;;4981029;28;20484;-68
2023/06/06 06:42:44;;;;;;;5.55;2.80;;;13.80;99.90;;;;;;4976272;28;20042;-67
2023/06/06 06:45:12;;;;;;;6.18;2.60;;;13.90;99.90;;;;;;4981798;28;20108;-67
2023/06/06 06:47:39;;;;;;;8.32;3.10;;;13.90;99.90;;;;;;4979961;28;20037;-67
2023/06/06 06:50:05;;;;;;;9.43;2.70;;;13.90;99.90;;;;;;4984532;28;20039;-67
2023/06/06 06:52:35;;;;;;;8.35;2.67;;;14.00;99.90;;;;;;4982787;28;20049;-67
2023/06/06 06:55:01;;;;;;;13.07;2.95;;;14.10;99.90;;;;;;4990865;28;20038;-67
2023/06/06 06:57:28;;;;;;;;;;;14.10;99.90;;;;;;4990970;28;20614;-67
2023/06/06 07:00:00;;;;;;;5.95;2.45;;;14.20;99.90;;;;;;4986806;28;19921;-67
2023/06/06 07:02:27;;;;;;;4.53;2.10;;;14.30;99.90;;;;;;4985222;28;20125;-67
2023/06/06 07:04:54;;;;;;;5.45;2.13;;;14.30;99.90;;;;;;4997805;28;20129;-67
2023/06/06 07:07:20;;;;;;;4.93;2.15;;;14.30;99.90;;;;;;4993353;28;20046;-67
2023/06/06 07:09:46;;;;;;;8.90;2.30;;;14.40;99.90;;;;;;4987416;28;20101;-67
2023/06/06 07:12:12;;;;;;;4.95;2.03;;;14.50;99.90;;;;;;4989681;28;20123;-67
2023/06/06 07:14:38;;;;;;;7.43;2.20;;;14.60;99.90;;;;;;4988256;28;20048;-67
2023/06/06 07:17:05;;;;;;;7.15;2.20;;;14.60;99.90;;;;;;4990306;28;20164;-67
2023/06/06 07:19:31;;;;;;;12.70;2.67;;;14.70;99.90;;;;;;4985742;28;20042;-67
2023/06/06 07:21:56;;;;;;;6.00;2.65;;;14.70;99.90;;;;;;4981608;28;20041;-67
2023/06/06 07:24:25;;;;;;;9.95;2.40;;;14.80;99.90;;;;;;4986033;28;20046;-67
2023/06/06 07:26:54;;;;;;;6.75;2.63;;;14.90;99.90;;;;;;4986996;28;20042;-67
2023/06/06 07:29:21;;;;;;;9.18;3.20;;;14.90;99.90;;;;;;4968523;28;20053;-67
2023/06/06 07:31:47;;;;;;;5.75;2.38;;;15.00;99.90;;;;;;4985009;28;20200;-67
2023/06/06 07:34:13;;;;;;;;;;;15.00;99.90;;;;;;4988807;28;20056;-67
2023/06/06 07:36:38;;;;;;;7.53;2.38;;;15.10;99.90;;;;;;4991642;28;19925;-67
2023/06/06 07:39:04;;;;;;;5.63;2.53;;;15.10;99.90;;;;;;4987639;28;20069;-67
2023/06/06 07:41:30;;;;;;;6.00;2.75;;;15.10;99.90;;;;;;4987047;28;20133;-67
2023/06/06 07:43:57;;;;;;;6.68;2.38;;;15.20;99.90;;;;;;4957235;28;20057;-67
2023/06/06 07:46:24;;;;;;;6.97;2.50;;;15.30;99.90;;;;;;4988682;28;20043;-67
2023/06/06 07:48:50;;;;;;;5.63;2.08;;;15.30;99.90;;;;;;4985497;28;20043;-67
2023/06/06 07:51:16;;;;;;;8.80;2.95;;;15.40;99.90;;;;;;4986136;28;20048;-67
2023/06/06 07:53:43;;;;;;;;;;;15.40;99.90;;;;;;4983746;28;20054;-67
2023/06/06 07:56:09;;;;;;;8.13;2.95;;;15.50;99.90;;;;;;4987518;28;20229;-67
2023/06/06 07:58:40;;;;;;;7.13;2.72;;;15.50;99.90;;;;;;4983820;28;20416;-67
2023/06/06 08:01:07;;;;;;;5.50;2.63;;;15.50;99.90;;;;;;4980475;28;20100;-67
2023/06/06 08:03:33;;;;;;;7.75;2.88;;;15.50;99.90;;;;;;4973224;28;20493;-67
2023/06/06 08:05:58;;;;;;;7.47;2.92;;;15.60;99.90;;;;;;4976984;28;20530;-66
2023/06/06 08:08:26;;;;;;;6.10;2.60;;;15.70;99.90;;;;;;4984828;28;20038;-67
2023/06/06 08:10:52;;;;;;;6.35;2.65;;;15.70;99.90;;;;;;4983290;28;20044;-67
2023/06/06 08:13:19;;;;;;;7.30;2.70;;;15.80;99.90;;;;;;4977457;28;20054;-67
2023/06/06 08:15:45;;;;;;;3.42;2.20;;;15.90;99.90;;;;;;4985568;28;20131;-67
2023/06/06 08:18:13;;;;;;;7.82;2.55;;;16.00;99.90;;;;;;4982388;28;20050;-67
2023/06/06 08:20:39;;;;;;;8.23;2.67;;;16.00;99.90;;;;;;4990864;28;20057;-67
2023/06/06 08:23:04;;;;;;;5.03;2.22;;;16.10;99.90;;;;;;4985179;28;20088;-67
2023/06/06 08:25:30;;;;;;;5.90;2.40;;;16.20;99.90;;;;;;4983962;28;20125;-67
2023/06/06 08:27:58;;;;;;;6.40;2.50;;;16.20;99.90;;;;;;4988149;28;20403;-67
2023/06/06 08:30:24;;;;;;;5.57;2.72;;;16.20;99.90;;;;;;4989650;28;20053;-67
2023/06/06 08:32:50;;;;;;;5.35;2.83;;;16.20;99.90;;;;;;4992703;28;20034;-67
2023/06/06 08:35:17;;;;;;;6.40;2.85;;;16.30;99.90;;;;;;4979437;28;20057;-67
2023/06/06 08:37:43;;;;;;;5.68;2.38;;;16.30;99.90;;;;;;4984290;28;20472;-67
2023/06/06 08:40:10;;;;;;;7.05;2.60;;;16.40;99.90;;;;;;4983635;28;20128;-67
2023/06/06 08:42:44;;;;;;;6.88;2.70;;;16.40;99.90;;;;;;4993316;28;20437;-67
2023/06/06 08:45:10;;;;;;;6.40;3.20;;;16.50;99.90;;;;;;4985668;28;20089;-67
2023/06/06 08:47:37;;;;;;;8.30;2.60;;;16.50;99.90;;;;;;4994210;28;20507;-67
2023/06/06 08:50:07;;;;;;;5.47;2.50;;;16.50;99.90;;;;;;4989835;28;20046;-67
2023/06/06 08:52:36;;;;;;;6.43;2.90;;;16.60;99.90;;;;;;4989862;28;20548;-67
2023/06/06 08:55:03;;;;;;;8.18;2.88;;;16.70;99.90;;;;;;4990247;28;20113;-67
2023/06/06 08:57:28;;;;;;;7.22;2.63;;;16.80;99.90;;;;;;4982144;28;20229;-67
2023/06/06 08:59:54;;;;;;;5.63;2.47;;;16.90;99.90;;;;;;4986114;28;20037;-67
2023/06/06 09:02:22;;;;;;;8.38;3.22;;;17.00;99.90;;;;;;4974157;28;20078;-67
2023/06/06 09:04:48;;;;;;;6.65;3.50;;;17.00;99.90;;;;;;4986824;28;20125;-67
2023/06/06 09:07:15;;;;;;;5.85;3.03;;;17.10;99.90;;;;;;4992555;28;20213;-67
2023/06/06 09:09:45;;;;;;;7.07;3.03;;;17.20;99.90;;;;;;4992223;28;20068;-67
2023/06/06 09:12:11;;;;;;;6.30;2.67;;;17.20;99.90;;;;;;4989280;28;20164;-67
2023/06/06 09:14:36;;;;;;;5.95;2.92;;;17.30;99.90;;;;;;4991100;28;20046;-67
2023/06/06 09:17:03;;;;;;;6.20;3.10;;;17.40;99.90;;;;;;4993276;28;20126;-67
2023/06/06 09:19:31;;;;;;;5.53;2.92;;;17.40;99.90;;;;;;4989850;28;20198;-67
2023/06/06 09:21:59;;;;;;;7.88;3.40;;;17.50;99.90;;;;;;4969815;28;20104;-66
2023/06/06 09:24:25;;;;;;;6.75;2.88;;;17.60;99.90;;;;;;4995299;28;20085;-67
2023/06/06 09:26:51;;;;;;;7.75;2.63;;;17.60;99.90;;;;;;4988109;28;20039;-67
2023/06/06 09:29:16;;;;;;;7.85;3.00;;;17.70;99.90;;;;;;4980042;28;20420;-68
2023/06/06 09:31:42;;;;;;;10.60;2.83;;;17.80;99.90;;;;;;4987244;28;20052;-67
2023/06/06 09:34:09;;;;;;;6.55;2.58;;;18.00;99.90;;;;;;4983619;28;20471;-67
2023/06/06 09:36:40;;;;;;;6.65;3.30;;;18.10;99.90;;;;;;4987910;28;20069;-67
2023/06/06 09:39:13;;;;;;;3.90;2.70;;;18.20;99.90;;;;;;4985331;28;20050;-67
2023/06/06 09:41:47;;;;;;;6.47;2.92;;;18.20;99.90;;;;;;4988232;28;20067;-67
2023/06/06 09:44:19;;;;;;;6.95;2.92;;;18.30;99.90;;;;;;4990045;28;20686;-67
2023/06/06 09:46:45;;;;;;;7.95;3.15;;;18.50;99.90;;;;;;4989626;28;20108;-67
2023/06/06 09:49:12;;;;;;;5.70;2.70;;;18.50;99.90;;;;;;4993522;28;20061;-67
2023/06/06 09:51:45;;;;;;;5.82;2.60;;;18.60;99.90;;;;;;4985555;28;20050;-67
2023/06/06 09:54:11;;;;;;;5.55;2.90;;;18.60;99.90;;;;;;4976351;28;20646;-67
2023/06/06 09:56:39;;;;;;;8.25;3.03;;;18.70;99.90;;;;;;4979555;28;20051;-67
2023/06/06 09:59:06;;;;;;;5.50;3.00;;;18.70;99.90;;;;;;4989194;28;20216;-67
2023/06/06 10:01:33;;;;;;;4.05;2.08;;;18.90;99.90;;;;;;4996821;28;20038;-67
2023/06/06 10:04:00;;;;;;;6.85;3.15;;;18.90;99.90;;;;;;4973070;28;20042;-67
2023/06/06 10:06:33;;;;;;;6.82;2.80;;;18.90;99.90;;;;;;4992996;28;20122;-67
2023/06/06 10:09:06;;;;;;;9.00;3.00;;;18.90;99.90;;;;;;4988152;28;20044;-67
2023/06/06 10:11:36;;;;;;;4.68;2.55;;;19.00;99.90;;;;;;4990977;28;20038;-67
2023/06/06 10:14:05;;;;;;;9.55;2.78;;;19.10;99.90;;;;;;4994069;28;20499;-67
2023/06/06 10:16:34;;;;;;;4.55;2.78;;;19.10;99.90;;;;;;4978625;28;20064;-67
2023/06/06 10:19:00;;;;;;;6.10;3.05;;;19.10;99.90;;;;;;4987585;28;20121;-67
2023/06/06 10:21:28;;;;;;;5.03;2.92;;;19.20;99.90;;;;;;4994338;28;20132;-67
2023/06/06 10:23:54;;;;;;;9.23;3.55;;;19.20;99.90;;;;;;4988414;28;20505;-67
2023/06/06 10:26:47;;;;;;;;;;;19.20;99.90;;;;;;4986007;28;20130;-67
2023/06/06 10:29:23;;;;;;;7.05;3.80;;;19.20;99.90;;;;;;4973203;28;19917;-67
2023/06/06 10:32:03;;;;;;;9.30;3.20;;;19.20;99.90;;;;;;4989216;28;20128;-67
2023/06/06 10:34:40;;;;;;;8.15;3.83;;;19.20;99.90;;;;;;4980454;28;20172;-67
2023/06/06 10:37:22;;;;;;;12.23;3.63;;;19.10;99.90;;;;;;4993258;28;20466;-67
2023/06/06 10:39:59;;;;;;;11.45;3.33;;;19.10;99.90;;;;;;4986975;28;20226;-67
2023/06/06 10:42:45;;;;;;;5.13;3.00;;;19.20;99.90;;;;;;4984289;28;20131;-67
2023/06/06 10:45:11;;;;;;;8.10;3.25;;;19.30;99.90;;;;;;4987236;28;20122;-67
2023/06/06 10:47:46;;;;;;;10.43;3.83;;;19.40;99.90;;;;;;4991340;28;20049;-67
2023/06/06 10:50:11;;;;;;;9.45;3.75;;;19.60;99.90;;;;;;4983326;28;20038;-67
2023/06/06 10:52:46;;;;;;;10.30;3.70;;;19.70;99.90;;;;;;4990454;28;20042;-67
2023/06/06 10:55:22;;;;;;;9.23;3.92;;;19.70;99.90;;;;;;4980140;28;20076;-67
2023/06/06 10:57:55;;;;;;;7.95;3.65;;;19.80;99.90;;;;;;4988919;28;20512;-67
2023/06/06 11:00:23;;;;;;;8.93;3.88;;;19.80;99.90;;;;;;4979695;28;20058;-67
2023/06/06 11:02:48;;;;;;;7.43;3.60;;;19.80;99.90;;;;;;4991577;28;20082;-67
2023/06/06 11:05:15;;;;;;;6.28;3.42;;;19.70;99.90;;;;;;5003618;28;20080;-67
2023/06/06 11:07:41;;;;;;;10.43;4.18;;;19.70;99.90;;;;;;4974339;28;20047;-67
2023/06/06 11:10:06;;;;;;;;;;;19.80;99.90;;;;;;4988740;28;20038;-67
2023/06/06 11:12:32;;;;;;;7.03;3.78;;;19.90;99.90;;;;;;4983515;28;20387;-67
2023/06/06 11:15:05;;;;;;;8.98;3.45;;;19.90;99.90;;;;;;4984140;28;20117;-67
2023/06/06 11:17:52;;;;;;;7.70;3.50;;;19.90;99.90;;;;;;4989148;28;20062;-67
2023/06/06 11:20:22;;;;;;;;;;;20.00;99.90;;;;;;4987254;28;20053;-67
2023/06/06 11:23:02;;;;;;;6.72;4.05;;;20.00;99.90;;;;;;4987619;28;20391;-67
2023/06/06 11:25:35;;;;;;;9.95;3.92;;;20.00;99.90;;;;;;4982886;28;20306;-67
2023/06/06 11:28:02;;;;;;;7.85;3.92;;;20.10;99.90;;;;;;4986026;28;20456;-67
2023/06/06 11:30:32;;;;;;;8.35;3.90;;;20.20;99.90;;;;;;4988018;28;20385;-65
2023/06/06 11:32:58;;;;;;;7.82;3.80;;;20.20;99.90;;;;;;4986453;28;20845;-65
2023/06/06 11:35:24;;;;;;;7.93;3.22;;;20.20;99.90;;;;;;4986824;28;20433;-67
2023/06/06 11:37:50;;;;;;;5.45;3.28;;;20.20;99.90;;;;;;4984713;28;20057;-67
2023/06/06 11:40:16;;;;;;;9.55;3.58;;;20.10;99.90;;;;;;4992532;28;20697;-67
2023/06/06 11:42:43;;;;;;;;;;;20.10;99.90;;;;;;4987029;28;20097;-67
2023/06/06 11:45:15;;;;;;;6.70;2.85;;;20.00;99.90;;;;;;4986054;28;19922;-67
2023/06/06 11:47:41;;;;;;;4.88;2.92;;;20.00;99.90;;;;;;4983494;28;20436;-67
2023/06/06 11:50:08;;;;;;;6.78;3.60;;;20.10;99.90;;;;;;4987337;28;20033;-67
2023/06/06 11:52:48;;;;;;;7.78;3.45;;;20.10;99.90;;;;;;4986502;28;20061;-67
2023/06/06 11:55:14;;;;;;;6.55;2.92;;;20.10;99.90;;;;;;4976566;28;20116;-67
2023/06/06 11:57:41;;;;;;;8.30;3.45;;;20.20;99.90;;;;;;4984926;28;20054;-67
2023/06/06 12:00:16;;;;;;;8.35;3.47;;;20.20;99.90;;;;;;4987322;28;20046;-67
2023/06/06 12:02:45;;;;;;;8.80;3.85;;;20.20;99.90;;;;;;4981418;28;20074;-67
2023/06/06 12:05:25;;;;;;;7.35;3.92;;;20.30;99.90;;;;;;4979759;28;20781;-67
2023/06/06 12:07:58;;;;;;;7.82;3.75;;;20.30;99.90;;;;;;4982052;28;20077;-67
2023/06/06 12:10:30;;;;;;;6.95;3.90;;;20.40;99.90;;;;;;4981140;28;20038;-66
2023/06/06 12:12:56;;;;;;;10.15;3.80;;;20.50;99.90;;;;;;4978818;28;20681;-67
2023/06/06 12:15:22;;;;;;;;;;;20.40;99.90;;;;;;4967447;28;20459;-67
2023/06/06 12:17:48;;;;;;;9.63;3.80;;;20.40;99.90;;;;;;4994433;28;20012;-67
2023/06/06 12:20:24;;;;;;;11.15;4.03;;;20.40;99.90;;;;;;4992990;28;20552;-67
2023/06/06 12:22:51;;;;;;;8.23;3.90;;;20.50;99.90;;;;;;5018004;22;20136;-69
2023/06/06 12:25:27;;;;;;;13.00;3.75;;;20.70;99.90;;;;;;5002929;28;20050;-68
2023/06/06 12:27:53;;;;;;;;;;;20.70;99.90;;;;;;4994207;28;20050;-68
2023/06/06 12:30:32;;;;;;;6.97;3.25;;;20.70;99.90;;;;;;4994056;28;19925;-68
2023/06/06 12:33:01;;;;;;;7.93;3.33;;;20.60;99.90;;;;;;5004800;28;20579;-68
2023/06/06 12:35:27;;;;;;;9.85;3.38;;;20.70;99.90;;;;;;5002764;28;20097;-70
2023/06/06 12:37:53;;;;;;;10.27;3.95;;;20.70;99.90;;;;;;5003632;28;20077;-68
2023/06/06 12:40:21;;;;;;;9.43;3.30;;;20.80;99.90;;;;;;5005791;28;20415;-68
2023/06/06 12:42:58;;;;;;;6.97;2.80;;;20.80;99.90;;;;;;5000181;28;20045;-68
2023/06/06 12:45:25;;;;;;;9.93;3.00;;;21.00;99.90;;;;;;5002045;28;20052;-68
2023/06/06 12:47:52;;;;;;;10.00;3.35;;;21.10;99.90;;;;;;5002503;28;20131;-68
2023/06/06 12:50:22;;;;;;;7.60;2.88;;;21.30;99.90;;;;;;5003066;28;20041;-69
2023/06/06 12:52:48;;;;;;;6.38;2.83;;;21.50;99.90;;;;;;5009091;28;20404;-69